Terminal Aerodrome Forecast
Issued by NWS Sioux Falls, SD

Home | Current Version | Previous Version | Graphics & Text | Print | Product List | Glossary On
Versions: 1 2 3 4 5 6 7 8 9 10 11 12 13 14 15 16 17 18
076
FTUS43 KFSD 132328
TAFHON
TAF
KHON 132328Z 1400/1424 15020G29KT P6SM OVC070
     FM140300 15018G26KT 3SM -SN BLSN OVC025
     FM140500 15017G26KT 1SM -SN BLSN OVC025
     FM141100 16011KT 3SM -SN OVC020
     FM141400 21007KT P6SM OVC025
     FM141800 28009KT P6SM BKN025=

USA.gov is the U.S. government's official web portal to all federal, state and local government web resources and services.